createdAt,value
2018-04-01T00:00:52.627Z,2.07
2018-04-01T00:03:21.194Z,1.90
2018-04-01T00:05:49.784Z,2.10
2018-04-01T00:08:18.346Z,2.30
2018-04-01T00:10:46.900Z,2.03
2018-04-01T00:13:15.462Z,1.93
2018-04-01T00:15:44.114Z,1.90
2018-04-01T00:18:12.658Z,2.00
2018-04-01T00:20:41.303Z,1.90
2018-04-01T00:23:09.878Z,1.83
2018-04-01T00:25:38.455Z,1.70
2018-04-01T00:28:07.001Z,2.00
2018-04-01T00:30:35.651Z,1.83
2018-04-01T00:33:04.219Z,1.80
2018-04-01T00:35:32.770Z,1.70
2018-04-01T00:38:01.343Z,1.87
2018-04-01T00:40:29.893Z,1.60
2018-04-01T00:42:58.486Z,1.43
2018-04-01T00:45:27.087Z,1.23
2018-04-01T00:47:55.650Z,1.17
2018-04-01T00:50:24.255Z,1.00
2018-04-01T00:52:52.855Z,1.20
2018-04-01T00:55:21.422Z,1.00
2018-04-01T00:57:49.974Z,1.00
2018-04-01T01:00:18.553Z,1.10
2018-04-01T01:02:47.192Z,1.40
2018-04-01T01:05:15.738Z,1.40
2018-04-01T01:07:44.302Z,1.80
2018-04-01T01:10:12.851Z,2.17
2018-04-01T01:12:41.437Z,1.70
2018-04-01T01:15:10.044Z,1.70
2018-04-01T01:17:38.614Z,1.87
2018-04-01T01:20:07.181Z,2.03
2018-04-01T01:22:35.800Z,1.80
2018-04-01T01:25:04.358Z,2.03
2018-04-01T01:27:32.932Z,1.97
2018-04-01T01:30:01.483Z,1.93
2018-04-01T01:32:30.158Z,2.10
2018-04-01T01:34:58.722Z,2.40
2018-04-01T01:37:27.271Z,2.67
2018-04-01T01:39:55.839Z,2.53
2018-04-01T01:42:24.498Z,2.93
2018-04-01T01:44:53.068Z,3.27
2018-04-01T01:47:21.642Z,3.30
2018-04-01T01:49:50.218Z,3.43
2018-04-01T01:52:18.763Z,3.53
2018-04-01T01:54:47.339Z,3.30
2018-04-01T01:57:15.913Z,3.50
2018-04-01T01:59:44.477Z,3.53
2018-04-01T02:02:13.038Z,3.23
2018-04-01T02:04:41.588Z,3.50
2018-04-01T02:07:10.180Z,3.40
2018-04-01T02:09:38.727Z,3.13
2018-04-01T02:12:07.269Z,3.10
2018-04-01T02:14:35.839Z,2.73
2018-04-01T02:17:04.390Z,2.80
2018-04-01T02:19:32.961Z,2.87
2018-04-01T02:22:01.518Z,2.53
2018-04-01T02:24:30.099Z,2.30
2018-04-01T02:26:58.686Z,2.03
2018-04-01T02:29:27.252Z,2.50
2018-04-01T02:31:55.801Z,2.20
2018-04-01T02:34:24.371Z,2.17
2018-04-01T02:36:52.931Z,2.20
2018-04-01T02:39:21.531Z,1.70
2018-04-01T02:41:50.207Z,1.60
2018-04-01T02:44:18.798Z,1.97
2018-04-01T02:46:47.399Z,1.83
2018-04-01T02:49:15.975Z,1.87
2018-04-01T02:51:44.556Z,1.77
2018-04-01T02:54:13.118Z,1.60
2018-04-01T02:56:41.757Z,1.60
2018-04-01T02:59:10.335Z,1.40
2018-04-01T03:01:38.890Z,1.37
2018-04-01T03:04:07.471Z,1.37
2018-04-01T03:06:36.094Z,1.30
2018-04-01T03:09:04.646Z,1.40
2018-04-01T03:11:33.214Z,1.40
2018-04-01T03:14:01.857Z,1.20
2018-04-01T03:16:30.431Z,1.40
2018-04-01T03:18:59.069Z,1.20
2018-04-01T03:21:27.739Z,1.20
2018-04-01T03:23:56.318Z,1.27
2018-04-01T03:26:24.885Z,1.50
2018-04-01T03:28:53.499Z,1.30
2018-04-01T03:31:22.061Z,1.70
2018-04-01T03:33:50.650Z,1.63
2018-04-01T03:36:19.210Z,1.60
2018-04-01T03:38:47.767Z,1.70
2018-04-01T03:41:16.340Z,1.70
2018-04-01T03:43:44.926Z,1.47
2018-04-01T03:46:13.499Z,1.90
2018-04-01T03:48:42.070Z,1.50
2018-04-01T03:51:10.636Z,1.47
2018-04-01T03:53:39.275Z,1.60
2018-04-01T03:56:07.855Z,1.70
2018-04-01T03:58:36.933Z,1.40
2018-04-01T04:01:05.566Z,1.67
2018-04-01T04:03:34.107Z,1.40
2018-04-01T04:06:02.671Z,1.60
2018-04-01T04:08:31.242Z,1.60
2018-04-01T04:10:59.812Z,1.40
2018-04-01T04:13:28.388Z,1.63
2018-04-01T04:15:56.955Z,1.63
2018-04-01T04:18:25.515Z,1.57
2018-04-01T04:20:54.067Z,1.60
2018-04-01T04:23:22.643Z,1.17
2018-04-01T04:25:51.208Z,1.17
2018-04-01T04:28:19.774Z,1.10
2018-04-01T04:30:48.355Z,1.30
2018-04-01T04:33:16.899Z,1.27
2018-04-01T04:35:45.477Z,1.27
2018-04-01T04:38:14.078Z,1.40
2018-04-01T04:40:42.654Z,1.30
2018-04-01T04:43:11.211Z,1.40
2018-04-01T04:45:39.796Z,1.60
2018-04-01T04:48:08.344Z,1.30
2018-04-01T04:50:36.899Z,1.10
2018-04-01T04:53:06.250Z,0.97
2018-04-01T04:55:34.812Z,1.20
2018-04-01T04:58:03.487Z,1.07
2018-04-01T05:00:32.980Z,1.00
2018-04-01T05:03:01.591Z,1.20
2018-04-01T05:05:30.167Z,1.10
2018-04-01T05:07:58.767Z,1.20
2018-04-01T05:10:27.365Z,0.90
2018-04-01T05:12:55.948Z,0.97
2018-04-01T05:15:24.532Z,1.00
2018-04-01T05:17:53.096Z,1.30
2018-04-01T05:20:21.711Z,1.27
2018-04-01T05:22:50.299Z,1.47
2018-04-01T05:25:18.824Z,1.70
2018-04-01T05:27:47.475Z,2.10
2018-04-01T05:30:16.065Z,2.10
2018-04-01T05:32:44.642Z,1.90
2018-04-01T05:35:13.219Z,2.00
2018-04-01T05:37:41.780Z,2.00
2018-04-01T05:40:10.351Z,1.97
2018-04-01T05:42:38.943Z,2.10
2018-04-01T05:45:07.541Z,2.10
2018-04-01T05:47:36.179Z,2.47
2018-04-01T05:50:04.734Z,2.27
2018-04-01T05:52:33.364Z,2.23
2018-04-01T05:55:02.056Z,2.80
2018-04-01T05:57:30.732Z,2.80
2018-04-01T05:59:59.327Z,2.70
2018-04-01T06:02:27.889Z,2.60
2018-04-01T06:04:56.463Z,2.67
2018-04-01T06:07:25.020Z,2.70
2018-04-01T06:09:53.603Z,2.67
2018-04-01T06:12:22.160Z,2.63
2018-04-01T06:14:50.761Z,3.10
2018-04-01T06:17:19.331Z,3.53
2018-04-01T06:19:47.907Z,3.60
2018-04-01T06:22:16.514Z,2.63
2018-04-01T06:24:45.093Z,2.97
2018-04-01T06:27:13.658Z,2.57
2018-04-01T06:29:42.211Z,2.90
2018-04-01T06:32:10.872Z,2.90
2018-04-01T06:34:39.466Z,2.50
2018-04-01T06:37:08.017Z,2.20
2018-04-01T06:39:36.597Z,2.20
2018-04-01T06:42:05.159Z,2.57
2018-04-01T06:44:33.736Z,2.60
2018-04-01T06:47:02.316Z,2.53
2018-04-01T06:49:30.949Z,2.20
2018-04-01T06:51:59.580Z,2.20
2018-04-01T06:54:28.259Z,1.90
2018-04-01T06:56:56.849Z,1.83
2018-04-01T06:59:25.427Z,2.03
2018-04-01T07:01:54.046Z,1.90
2018-04-01T07:04:28.764Z,1.80
2018-04-01T07:06:57.358Z,2.27
2018-04-01T07:09:26.034Z,1.90
2018-04-01T07:11:54.804Z,2.30
2018-04-01T07:14:23.343Z,2.40
2018-04-01T07:16:51.970Z,2.37
2018-04-01T07:19:20.601Z,2.37
2018-04-01T07:21:49.193Z,2.57
2018-04-01T07:24:17.836Z,2.20
2018-04-01T07:26:46.386Z,2.40
2018-04-01T07:29:14.934Z,2.63
2018-04-01T07:31:43.547Z,2.40
2018-04-01T07:34:12.120Z,2.40
2018-04-01T07:36:40.682Z,2.97
2018-04-01T07:39:09.314Z,4.00
2018-04-01T07:41:37.992Z,3.07
2018-04-01T07:44:06.570Z,2.90
2018-04-01T07:46:35.143Z,3.00
2018-04-01T07:49:03.755Z,2.90
2018-04-01T07:51:32.338Z,2.10
2018-04-01T07:54:01.041Z,2.50
2018-04-01T07:56:29.601Z,2.40
2018-04-01T07:58:58.167Z,2.13
2018-04-01T08:01:26.850Z,2.37
2018-04-01T08:03:55.418Z,2.20
2018-04-01T08:06:23.967Z,2.40
2018-04-01T08:08:52.537Z,1.90
2018-04-01T08:11:21.172Z,1.80
2018-04-01T08:13:49.855Z,1.73
2018-04-01T08:16:18.408Z,2.20
2018-04-01T08:18:47.023Z,2.00
2018-04-01T08:21:15.607Z,1.87
2018-04-01T08:23:44.188Z,1.80
2018-04-01T08:26:12.772Z,1.50
2018-04-01T08:28:41.420Z,1.80
2018-04-01T08:31:09.985Z,1.43
2018-04-01T08:33:38.573Z,1.40
2018-04-01T08:36:07.122Z,2.20
2018-04-01T08:38:35.685Z,1.70
2018-04-01T08:41:04.245Z,1.57
2018-04-01T08:43:32.903Z,2.60
2018-04-01T08:46:01.488Z,2.03
2018-04-01T08:48:30.058Z,1.60
2018-04-01T08:50:58.671Z,1.23
2018-04-01T08:53:27.352Z,1.53
2018-04-01T08:55:55.951Z,1.50
2018-04-01T08:58:24.507Z,1.50
2018-04-01T09:00:53.063Z,1.40
2018-04-01T09:03:21.619Z,1.40
2018-04-01T09:05:50.195Z,1.40
2018-04-01T09:08:18.796Z,1.80
2018-04-01T09:10:47.378Z,1.30
2018-04-01T09:13:15.934Z,1.20
2018-04-01T09:15:44.510Z,1.10
2018-04-01T09:18:13.151Z,1.20
2018-04-01T09:20:41.724Z,0.90
2018-04-01T09:23:10.310Z,1.00
2018-04-01T09:25:38.862Z,1.00
2018-04-01T09:28:07.492Z,1.60
2018-04-01T09:30:36.090Z,0.90
2018-04-01T09:33:04.687Z,1.37
2018-04-01T09:35:33.243Z,1.20
2018-04-01T09:38:01.820Z,1.30
2018-04-01T09:40:30.414Z,1.40
2018-04-01T09:42:58.970Z,1.23
2018-04-01T09:45:27.561Z,1.50
2018-04-01T09:47:56.201Z,1.30
2018-04-01T09:50:24.771Z,3.80
2018-04-01T09:52:53.380Z,3.63
2018-04-01T09:55:22.064Z,2.43
2018-04-01T09:57:50.628Z,1.37
2018-04-01T10:00:25.129Z,1.20
2018-04-01T10:02:53.928Z,1.50
2018-04-01T10:05:22.750Z,1.10
2018-04-01T10:07:51.559Z,1.33
2018-04-01T10:10:20.462Z,0.97
2018-04-01T10:12:49.265Z,1.20
2018-04-01T10:15:18.058Z,1.40
2018-04-01T10:17:46.851Z,0.90
2018-04-01T10:20:15.770Z,1.20
2018-04-01T10:22:44.560Z,1.30
2018-04-01T10:25:13.358Z,1.20
2018-04-01T10:27:42.218Z,1.60
2018-04-01T10:30:11.011Z,1.30
2018-04-01T10:32:39.845Z,1.73
2018-04-01T10:35:08.622Z,1.67
2018-04-01T10:37:37.415Z,2.10
2018-04-01T10:40:06.283Z,1.60
2018-04-01T10:42:35.087Z,1.30
2018-04-01T10:45:03.894Z,1.77
2018-04-01T10:47:32.755Z,1.63
2018-04-01T10:50:01.642Z,1.90
2018-04-01T10:52:30.431Z,1.70
2018-04-01T10:54:59.045Z,1.50
2018-04-01T10:57:27.570Z,1.33
2018-04-01T10:59:56.210Z,1.37
2018-04-01T11:02:24.791Z,1.33
2018-04-01T11:04:53.400Z,1.40
2018-04-01T11:07:21.974Z,1.17
2018-04-01T11:09:50.535Z,1.40
2018-04-01T11:12:19.107Z,1.80
2018-04-01T11:14:47.752Z,1.60
2018-04-01T11:17:16.331Z,1.40
2018-04-01T11:19:44.909Z,1.10
2018-04-01T11:22:13.467Z,1.03
2018-04-01T11:24:42.031Z,1.17
2018-04-01T11:27:10.678Z,1.40
2018-04-01T11:29:39.329Z,1.27
2018-04-01T11:32:07.917Z,1.17
2018-04-01T11:34:38.347Z,1.30
2018-04-01T11:37:07.245Z,1.43
2018-04-01T11:39:36.063Z,2.13
2018-04-01T11:42:04.756Z,2.03
2018-04-01T11:44:33.467Z,2.93
2018-04-01T11:47:02.078Z,2.80
2018-04-01T11:49:30.672Z,3.33
2018-04-01T11:51:59.373Z,3.30
2018-04-01T11:54:27.976Z,3.50
2018-04-01T11:56:56.613Z,3.93
2018-04-01T11:59:25.190Z,3.73
2018-04-01T12:01:53.828Z,3.80
2018-04-01T12:04:22.533Z,3.93
2018-04-01T12:06:51.166Z,4.33
2018-04-01T12:09:19.743Z,4.53
2018-04-01T12:11:48.334Z,4.60
2018-04-01T12:14:16.956Z,3.93
2018-04-01T12:16:45.508Z,4.30
2018-04-01T12:19:14.080Z,3.93
2018-04-01T12:21:42.724Z,3.87
2018-04-01T12:24:11.391Z,3.47
2018-04-01T12:26:39.966Z,2.83
2018-04-01T12:29:08.572Z,3.00
2018-04-01T12:31:37.132Z,3.13
2018-04-01T12:34:05.714Z,2.90
2018-04-01T12:36:34.328Z,2.70
2018-04-01T12:39:02.906Z,3.10
2018-04-01T12:41:31.500Z,3.07
2018-04-01T12:44:00.100Z,3.63
2018-04-01T12:46:28.687Z,3.53
2018-04-01T12:48:57.368Z,3.90
2018-04-01T12:51:25.950Z,2.90
2018-04-01T12:53:54.543Z,2.67
2018-04-01T12:56:23.122Z,2.57
2018-04-01T12:58:51.715Z,2.40
2018-04-01T13:01:20.304Z,3.10
2018-04-01T13:03:48.856Z,3.07
2018-04-01T13:06:17.545Z,3.53
2018-04-01T13:08:46.086Z,3.43
2018-04-01T13:11:14.670Z,3.70
2018-04-01T13:13:43.247Z,3.80
2018-04-01T13:16:11.838Z,3.40
2018-04-01T13:18:40.412Z,3.77
2018-04-01T13:21:09.016Z,3.77
2018-04-01T13:23:37.587Z,3.60
2018-04-01T13:26:06.167Z,3.20
2018-04-01T13:28:34.766Z,3.03
2018-04-01T13:31:03.335Z,3.20
2018-04-01T13:33:31.959Z,3.07
2018-04-01T13:36:00.549Z,3.20
2018-04-01T13:38:29.126Z,2.97
2018-04-01T13:40:57.733Z,3.10
2018-04-01T13:43:26.287Z,3.27
2018-04-01T13:45:54.883Z,2.87
2018-04-01T13:48:23.440Z,3.30
2018-04-01T13:50:52.019Z,4.40
2018-04-01T13:53:20.587Z,3.87
2018-04-01T13:55:49.210Z,3.33
2018-04-01T13:58:17.770Z,3.20
2018-04-01T14:00:46.391Z,3.60
2018-04-01T14:03:15.035Z,3.33
2018-04-01T14:05:43.615Z,3.87
2018-04-01T14:08:12.194Z,3.83
2018-04-01T14:10:40.745Z,3.63
2018-04-01T14:13:09.330Z,3.50
2018-04-01T14:15:37.875Z,3.80
2018-04-01T14:18:06.455Z,3.33
2018-04-01T14:20:35.027Z,4.00
2018-04-01T14:23:03.602Z,3.73
2018-04-01T14:25:32.243Z,4.00
2018-04-01T14:28:00.814Z,3.60
2018-04-01T14:30:29.394Z,3.93
2018-04-01T14:32:57.971Z,4.00
2018-04-01T14:35:26.559Z,4.33
2018-04-01T14:37:55.135Z,3.80
2018-04-01T14:40:23.715Z,3.37
2018-04-01T14:42:52.300Z,4.20
2018-04-01T14:45:20.887Z,3.50
2018-04-01T14:47:49.434Z,2.93
2018-04-01T14:50:18.064Z,2.90
2018-04-01T14:52:46.657Z,2.73
2018-04-01T14:55:15.262Z,2.83
2018-04-01T14:57:43.851Z,3.20
2018-04-01T15:00:12.423Z,3.70
2018-04-01T15:02:41.115Z,3.70
2018-04-01T15:05:09.710Z,3.73
2018-04-01T15:07:38.299Z,3.27
2018-04-01T15:10:06.858Z,3.93
2018-04-01T15:12:35.435Z,3.83
2018-04-01T15:15:04.011Z,4.70
2018-04-01T15:17:32.572Z,3.93
2018-04-01T15:20:01.367Z,3.33
2018-04-01T15:22:29.944Z,3.27
2018-04-01T15:24:58.515Z,2.80
2018-04-01T15:27:27.108Z,2.93
2018-04-01T15:29:55.770Z,3.37
2018-04-01T15:32:24.328Z,2.83
2018-04-01T15:34:52.901Z,2.87
2018-04-01T15:37:21.465Z,2.83
2018-04-01T15:39:50.063Z,3.20
2018-04-01T15:42:18.659Z,3.00
2018-04-01T15:44:47.304Z,2.73
2018-04-01T15:47:15.824Z,2.90
2018-04-01T15:49:44.420Z,2.97
2018-04-01T15:52:13.093Z,3.43
2018-04-01T15:54:41.691Z,3.53
2018-04-01T15:57:10.251Z,3.00
2018-04-01T15:59:38.843Z,3.03
2018-04-01T16:02:07.423Z,3.57
2018-04-01T16:04:36.156Z,3.20
2018-04-01T16:07:04.757Z,3.57
2018-04-01T16:09:33.332Z,3.40
2018-04-01T16:12:01.895Z,3.53
2018-04-01T16:14:30.471Z,3.60
2018-04-01T16:16:59.039Z,3.70
2018-04-01T16:19:27.623Z,3.30
2018-04-01T16:21:56.181Z,3.40
2018-04-01T16:24:24.855Z,3.93
2018-04-01T16:26:53.454Z,3.67
2018-04-01T16:29:22.017Z,3.53
2018-04-01T16:31:50.598Z,3.73
2018-04-01T16:34:19.187Z,3.50
2018-04-01T16:36:47.756Z,3.77
2018-04-01T16:39:16.325Z,3.77
2018-04-01T16:41:45.298Z,3.53
2018-04-01T16:44:13.877Z,4.17
2018-04-01T16:46:42.463Z,3.67
2018-04-01T16:49:11.036Z,3.80
2018-04-01T16:51:39.579Z,3.60
2018-04-01T16:54:08.179Z,4.57
2018-04-01T16:56:36.769Z,3.83
2018-04-01T16:59:05.406Z,3.97
2018-04-01T17:01:34.084Z,4.10
2018-04-01T17:04:02.688Z,3.50
2018-04-01T17:06:31.280Z,4.20
2018-04-01T17:08:59.855Z,3.90
2018-04-01T17:11:28.428Z,3.47
2018-04-01T17:13:57.008Z,3.87
2018-04-01T17:16:25.591Z,3.73
2018-04-01T17:18:54.807Z,3.63
2018-04-01T17:21:23.394Z,3.70
2018-04-01T17:23:52.058Z,4.17
2018-04-01T17:26:20.626Z,4.47
2018-04-01T17:28:49.285Z,4.73
2018-04-01T17:31:17.882Z,5.07
2018-04-01T17:33:46.487Z,4.83
2018-04-01T17:36:15.070Z,4.70
2018-04-01T17:38:43.660Z,4.30
2018-04-01T17:41:12.255Z,4.03
2018-04-01T17:43:40.919Z,4.17
2018-04-01T17:46:09.506Z,3.83
2018-04-01T17:48:38.062Z,4.87
2018-04-01T17:51:06.670Z,4.53
2018-04-01T17:53:35.254Z,4.20
2018-04-01T17:56:03.874Z,5.07
2018-04-01T17:58:32.432Z,4.97
2018-04-01T18:01:00.994Z,4.57
2018-04-01T18:03:29.620Z,5.50
2018-04-01T18:05:58.306Z,4.97
2018-04-01T18:08:26.871Z,4.67
2018-04-01T18:10:55.419Z,4.60
2018-04-01T18:13:24.023Z,4.93
2018-04-01T18:15:52.602Z,5.20
2018-04-01T18:18:21.162Z,4.80
2018-04-01T18:20:49.763Z,4.73
2018-04-01T18:23:18.357Z,5.00
2018-04-01T18:25:47.660Z,5.17
2018-04-01T18:28:16.202Z,5.03
2018-04-01T18:30:44.864Z,4.70
2018-04-01T18:33:13.435Z,4.57
2018-04-01T18:35:42.000Z,4.57
2018-04-01T18:38:10.580Z,3.70
2018-04-01T18:40:39.135Z,3.87
2018-04-01T18:43:07.791Z,3.90
2018-04-01T18:45:36.410Z,3.73
2018-04-01T18:48:05.043Z,4.27
2018-04-01T18:50:33.658Z,5.50
2018-04-01T18:53:02.271Z,5.27
2018-04-01T18:55:30.888Z,7.40
2018-04-01T18:57:59.466Z,5.93
2018-04-01T19:00:28.024Z,4.97
2018-04-01T19:02:56.625Z,4.23
2018-04-01T19:05:25.651Z,4.50
2018-04-01T19:07:54.202Z,3.90
2018-04-01T19:10:22.929Z,4.40
2018-04-01T19:12:51.480Z,3.93
2018-04-01T19:15:20.168Z,3.93
2018-04-01T19:17:49.022Z,4.23
2018-04-01T19:20:17.843Z,4.13
2018-04-01T19:22:46.663Z,4.43
2018-04-01T19:25:15.506Z,4.33
2018-04-01T19:27:44.324Z,4.93
2018-04-01T19:30:13.216Z,4.50
2018-04-01T19:32:42.035Z,5.00
2018-04-01T19:35:10.929Z,4.87
2018-04-01T19:37:39.755Z,4.90
2018-04-01T19:40:08.609Z,5.10
2018-04-01T19:42:37.391Z,5.00
2018-04-01T19:45:06.208Z,4.97
2018-04-01T19:47:35.035Z,4.93
2018-04-01T19:50:03.831Z,5.63
2018-04-01T19:52:32.852Z,5.33
2018-04-01T19:55:01.669Z,5.40
2018-04-01T19:57:30.497Z,5.43
2018-04-01T19:59:59.318Z,6.00
2018-04-01T20:02:28.198Z,5.53
2018-04-01T20:04:57.091Z,5.87
2018-04-01T20:07:25.914Z,7.53
2018-04-01T20:09:54.738Z,14.53
2018-04-01T20:12:23.551Z,9.90
2018-04-01T20:14:52.381Z,7.53
2018-04-01T20:17:21.176Z,6.17
2018-04-01T20:19:49.987Z,5.77
2018-04-01T20:22:18.796Z,6.10
2018-04-01T20:24:47.618Z,6.30
2018-04-01T20:27:16.435Z,9.27
2018-04-01T20:29:45.242Z,7.70
2018-04-01T20:32:14.055Z,6.50
2018-04-01T20:34:42.872Z,6.37
2018-04-01T20:37:11.695Z,6.90
2018-04-01T20:39:40.913Z,6.97
2018-04-01T20:42:09.804Z,7.33
2018-04-01T20:44:38.615Z,8.00
2018-04-01T20:47:07.501Z,8.60
2018-04-01T20:49:36.397Z,8.07
2018-04-01T20:52:05.196Z,7.63
2018-04-01T20:54:34.003Z,6.33
2018-04-01T20:57:02.819Z,6.37
2018-04-01T20:59:31.606Z,7.27
2018-04-01T21:02:00.825Z,6.70
2018-04-01T21:04:29.619Z,6.87
2018-04-01T21:06:58.434Z,6.83
2018-04-01T21:09:27.234Z,6.73
2018-04-01T21:11:56.069Z,7.20
2018-04-01T21:14:24.856Z,7.33
2018-04-01T21:16:53.658Z,7.10
2018-04-01T21:19:22.531Z,6.70
2018-04-01T21:21:51.335Z,6.90
2018-04-01T21:24:20.221Z,6.90
2018-04-01T21:26:49.829Z,6.43
2018-04-01T21:29:18.659Z,6.50
2018-04-01T21:31:47.454Z,6.77
2018-04-01T21:34:16.263Z,6.53
2018-04-01T21:36:45.074Z,6.63
2018-04-01T21:39:14.000Z,7.20
2018-04-01T21:41:42.803Z,7.33
2018-04-01T21:44:11.619Z,6.87
2018-04-01T21:46:40.476Z,6.53
2018-04-01T21:49:09.279Z,6.73
2018-04-01T21:51:38.084Z,6.27
2018-04-01T21:54:07.071Z,6.60
2018-04-01T21:56:35.875Z,7.03
2018-04-01T21:59:04.712Z,6.60
2018-04-01T22:01:33.527Z,6.17
2018-04-01T22:04:02.346Z,6.23
2018-04-01T22:06:31.156Z,6.50
2018-04-01T22:08:59.955Z,6.40
2018-04-01T22:11:28.777Z,7.43
2018-04-01T22:13:57.575Z,7.43
2018-04-01T22:16:26.376Z,6.97
2018-04-01T22:18:55.171Z,7.37
2018-04-01T22:21:23.995Z,7.90
2018-04-01T22:23:52.786Z,6.87
2018-04-01T22:26:22.112Z,7.50
2018-04-01T22:28:50.906Z,7.33
2018-04-01T22:31:19.738Z,7.20
2018-04-01T22:33:48.620Z,7.07
2018-04-01T22:36:17.412Z,7.73
2018-04-01T22:38:46.228Z,6.63
2018-04-01T22:41:15.047Z,6.63
2018-04-01T22:43:43.864Z,6.33
2018-04-01T22:46:12.666Z,6.67
2018-04-01T22:48:41.486Z,6.30
2018-04-01T22:51:10.689Z,6.80
2018-04-01T22:53:39.492Z,6.33
2018-04-01T22:56:08.301Z,6.77
2018-04-01T22:58:37.831Z,6.63
2018-04-01T23:01:06.711Z,6.23
2018-04-01T23:03:35.530Z,6.93
2018-04-01T23:06:04.322Z,7.73
2018-04-01T23:08:33.139Z,7.53
2018-04-01T23:11:01.963Z,7.50
2018-04-01T23:13:30.770Z,6.80
2018-04-01T23:15:59.567Z,6.60
2018-04-01T23:18:28.403Z,7.07
2018-04-01T23:20:57.209Z,7.30
2018-04-01T23:23:26.024Z,7.03
2018-04-01T23:25:54.842Z,6.63
2018-04-01T23:28:23.658Z,7.47
2018-04-01T23:30:52.500Z,7.13
2018-04-01T23:33:21.294Z,7.33
2018-04-01T23:35:50.152Z,7.50
2018-04-01T23:38:18.983Z,6.90
2018-04-01T23:40:47.802Z,7.20
2018-04-01T23:43:16.613Z,7.37
2018-04-01T23:45:45.504Z,8.10
2018-04-01T23:48:14.320Z,7.33
2018-04-01T23:50:43.115Z,7.07
2018-04-01T23:53:11.988Z,7.13
2018-04-01T23:55:41.623Z,7.37
2018-04-01T23:58:10.477Z,7.03
